sensor_id;sensor_type;location;lat;lon;timestamp;pressure;altitude;pressure_sealevel;temperature
61595;BMP280;47397;48.194;11.632;2022-10-16T00:00:58;96011.75;;;12.25
61595;BMP280;47397;48.194;11.632;2022-10-16T00:02:04;96008.94;;;12.36
61595;BMP280;47397;48.194;11.632;2022-10-16T00:03:05;96011.16;;;12.46
61595;BMP280;47397;48.194;11.632;2022-10-16T00:04:06;96009.59;;;12.42
61595;BMP280;47397;48.194;11.632;2022-10-16T00:05:06;96011.56;;;12.33
61595;BMP280;47397;48.194;11.632;2022-10-16T00:06:07;96012.59;;;12.27
61595;BMP280;47397;48.194;11.632;2022-10-16T00:07:08;96013.97;;;12.37
61595;BMP280;47397;48.194;11.632;2022-10-16T00:08:10;96022.84;;;12.24
61595;BMP280;47397;48.194;11.632;2022-10-16T00:09:11;96009.19;;;12.27
61595;BMP280;47397;48.194;11.632;2022-10-16T00:10:11;96016.63;;;12.34
61595;BMP280;47397;48.194;11.632;2022-10-16T00:11:14;96006.44;;;12.34
61595;BMP280;47397;48.194;11.632;2022-10-16T00:12:14;96017.88;;;12.19
61595;BMP280;47397;48.194;11.632;2022-10-16T00:13:15;96012.59;;;12.27
61595;BMP280;47397;48.194;11.632;2022-10-16T00:14:17;96019.50;;;12.22
61595;BMP280;47397;48.194;11.632;2022-10-16T00:15:17;96019.66;;;12.16
61595;BMP280;47397;48.194;11.632;2022-10-16T00:16:18;96022.25;;;12.14
61595;BMP280;47397;48.194;11.632;2022-10-16T00:17:18;96021.03;;;12.29
61595;BMP280;47397;48.194;11.632;2022-10-16T00:18:19;96030.47;;;12.24
61595;BMP280;47397;48.194;11.632;2022-10-16T00:19:19;96028.75;;;12.25
61595;BMP280;47397;48.194;11.632;2022-10-16T00:20:20;96013.28;;;12.32
61595;BMP280;47397;48.194;11.632;2022-10-16T00:21:22;96015.91;;;12.29
61595;BMP280;47397;48.194;11.632;2022-10-16T00:22:23;96016.53;;;12.37
61595;BMP280;47397;48.194;11.632;2022-10-16T00:23:23;96009.75;;;12.36
61595;BMP280;47397;48.194;11.632;2022-10-16T00:24:23;96015.13;;;12.27
61595;BMP280;47397;48.194;11.632;2022-10-16T00:25:24;96021.44;;;12.14
61595;BMP280;47397;48.194;11.632;2022-10-16T00:26:25;96025.34;;;12.26
61595;BMP280;47397;48.194;11.632;2022-10-16T00:27:26;96021.25;;;12.20
61595;BMP280;47397;48.194;11.632;2022-10-16T00:28:26;96014.22;;;12.30
61595;BMP280;47397;48.194;11.632;2022-10-16T00:29:28;96014.88;;;12.36
61595;BMP280;47397;48.194;11.632;2022-10-16T00:30:29;96013.00;;;12.41
61595;BMP280;47397;48.194;11.632;2022-10-16T00:31:29;96008.31;;;12.28
61595;BMP280;47397;48.194;11.632;2022-10-16T00:32:30;96009.06;;;12.31
61595;BMP280;47397;48.194;11.632;2022-10-16T00:33:30;96013.19;;;12.35
61595;BMP280;47397;48.194;11.632;2022-10-16T00:34:31;96014.16;;;12.31
61595;BMP280;47397;48.194;11.632;2022-10-16T00:35:31;96017.69;;;12.26
61595;BMP280;47397;48.194;11.632;2022-10-16T00:36:32;96020.38;;;12.21
61595;BMP280;47397;48.194;11.632;2022-10-16T00:37:32;96018.78;;;12.17
61595;BMP280;47397;48.194;11.632;2022-10-16T00:38:32;96024.75;;;12.16
61595;BMP280;47397;48.194;11.632;2022-10-16T00:39:33;96020.81;;;12.06
61595;BMP280;47397;48.194;11.632;2022-10-16T00:40:33;96019.91;;;12.08
61595;BMP280;47397;48.194;11.632;2022-10-16T00:41:34;96015.63;;;12.09
61595;BMP280;47397;48.194;11.632;2022-10-16T00:42:34;96014.88;;;12.05
61595;BMP280;47397;48.194;11.632;2022-10-16T00:43:38;96009.31;;;12.22
61595;BMP280;47397;48.194;11.632;2022-10-16T00:44:49;96005.09;;;12.21
61595;BMP280;47397;48.194;11.632;2022-10-16T00:45:50;96013.09;;;12.09
61595;BMP280;47397;48.194;11.632;2022-10-16T00:46:50;96008.34;;;11.97
61595;BMP280;47397;48.194;11.632;2022-10-16T00:47:52;96014.50;;;11.88
61595;BMP280;47397;48.194;11.632;2022-10-16T00:48:57;96018.91;;;11.81
61595;BMP280;47397;48.194;11.632;2022-10-16T00:50:05;96018.47;;;11.98
61595;BMP280;47397;48.194;11.632;2022-10-16T00:51:07;96016.16;;;11.91
61595;BMP280;47397;48.194;11.632;2022-10-16T00:52:08;96020.19;;;11.98
61595;BMP280;47397;48.194;11.632;2022-10-16T00:53:10;96017.66;;;11.98
61595;BMP280;47397;48.194;11.632;2022-10-16T00:54:14;96014.22;;;11.99
61595;BMP280;47397;48.194;11.632;2022-10-16T00:55:15;96023.41;;;12.04
61595;BMP280;47397;48.194;11.632;2022-10-16T00:56:16;96020.72;;;12.09
61595;BMP280;47397;48.194;11.632;2022-10-16T00:57:17;96019.31;;;11.99
61595;BMP280;47397;48.194;11.632;2022-10-16T00:58:18;96015.97;;;11.97
61595;BMP280;47397;48.194;11.632;2022-10-16T00:59:20;96021.88;;;11.99
61595;BMP280;47397;48.194;11.632;2022-10-16T01:00:26;96018.31;;;12.04
61595;BMP280;47397;48.194;11.632;2022-10-16T01:01:26;96020.81;;;12.06
61595;BMP280;47397;48.194;11.632;2022-10-16T01:02:27;96026.63;;;12.11
61595;BMP280;47397;48.194;11.632;2022-10-16T01:03:29;96025.56;;;12.18
61595;BMP280;47397;48.194;11.632;2022-10-16T01:04:34;96022.47;;;12.07
61595;BMP280;47397;48.194;11.632;2022-10-16T01:05:39;96022.47;;;12.07
61595;BMP280;47397;48.194;11.632;2022-10-16T01:06:44;96024.31;;;12.02
61595;BMP280;47397;48.194;11.632;2022-10-16T01:07:53;96023.28;;;12.09
61595;BMP280;47397;48.194;11.632;2022-10-16T01:09:04;96024.28;;;12.03
61595;BMP280;47397;48.194;11.632;2022-10-16T01:10:14;96020.84;;;12.04
61595;BMP280;47397;48.194;11.632;2022-10-16T01:11:23;96028.47;;;12.06
61595;BMP280;47397;48.194;11.632;2022-10-16T01:12:33;96030.56;;;11.92
61595;BMP280;47397;48.194;11.632;2022-10-16T01:13:41;96032.63;;;11.76
61595;BMP280;47397;48.194;11.632;2022-10-16T01:14:46;96041.75;;;11.84
61595;BMP280;47397;48.194;11.632;2022-10-16T01:15:52;96041.53;;;11.94
61595;BMP280;47397;48.194;11.632;2022-10-16T01:16:58;96041.63;;;11.91
61595;BMP280;47397;48.194;11.632;2022-10-16T01:18:05;96031.88;;;11.72
61595;BMP280;47397;48.194;11.632;2022-10-16T01:19:12;96042.50;;;11.88
61595;BMP280;47397;48.194;11.632;2022-10-16T01:20:21;96048.38;;;11.92
61595;BMP280;47397;48.194;11.632;2022-10-16T01:21:27;96046.63;;;11.94
61595;BMP280;47397;48.194;11.632;2022-10-16T01:22:36;96045.84;;;11.92
61595;BMP280;47397;48.194;11.632;2022-10-16T01:23:44;96049.97;;;11.96
61595;BMP280;47397;48.194;11.632;2022-10-16T01:24:49;96053.41;;;11.95
61595;BMP280;47397;48.194;11.632;2022-10-16T01:26:07;96039.63;;;12.02
61595;BMP280;47397;48.194;11.632;2022-10-16T01:27:13;96042.19;;;12.00
61595;BMP280;47397;48.194;11.632;2022-10-16T01:28:15;96046.88;;;11.83
61595;BMP280;47397;48.194;11.632;2022-10-16T01:29:21;96041.88;;;11.80
61595;BMP280;47397;48.194;11.632;2022-10-16T01:30:26;96040.84;;;11.87
61595;BMP280;47397;48.194;11.632;2022-10-16T01:31:35;96039.00;;;11.94
61595;BMP280;47397;48.194;11.632;2022-10-16T01:32:39;96036.44;;;11.94
61595;BMP280;47397;48.194;11.632;2022-10-16T01:33:43;96039.22;;;11.84
61595;BMP280;47397;48.194;11.632;2022-10-16T01:34:48;96050.34;;;11.80
61595;BMP280;47397;48.194;11.632;2022-10-16T01:35:52;96036.25;;;11.67
61595;BMP280;47397;48.194;11.632;2022-10-16T01:36:57;96050.06;;;11.58
61595;BMP280;47397;48.194;11.632;2022-10-16T01:38:03;96044.00;;;11.63
61595;BMP280;47397;48.194;11.632;2022-10-16T01:39:09;96042.28;;;11.63
61595;BMP280;47397;48.194;11.632;2022-10-16T01:40:13;96045.56;;;11.68
61595;BMP280;47397;48.194;11.632;2022-10-16T01:41:19;96045.50;;;11.70
61595;BMP280;47397;48.194;11.632;2022-10-16T01:42:28;96035.81;;;11.84
61595;BMP280;47397;48.194;11.632;2022-10-16T01:43:33;96037.84;;;11.71
61595;BMP280;47397;48.194;11.632;2022-10-16T01:44:37;96029.56;;;11.63
61595;BMP280;47397;48.194;11.632;2022-10-16T01:45:40;96033.09;;;11.57
61595;BMP280;47397;48.194;11.632;2022-10-16T01:46:43;96032.88;;;11.67
61595;BMP280;47397;48.194;11.632;2022-10-16T01:47:46;96030.91;;;11.76
61595;BMP280;47397;48.194;11.632;2022-10-16T01:48:48;96026.66;;;11.77
61595;BMP280;47397;48.194;11.632;2022-10-16T01:49:50;96030.72;;;11.50
61595;BMP280;47397;48.194;11.632;2022-10-16T01:50:56;96028.59;;;11.67
61595;BMP280;47397;48.194;11.632;2022-10-16T01:51:59;96030.44;;;11.62
61595;BMP280;47397;48.194;11.632;2022-10-16T01:53:02;96023.00;;;11.54
61595;BMP280;47397;48.194;11.632;2022-10-16T01:54:05;96023.75;;;11.58
61595;BMP280;47397;48.194;11.632;2022-10-16T01:55:09;96027.81;;;11.65
61595;BMP280;47397;48.194;11.632;2022-10-16T01:56:11;96025.09;;;11.71
61595;BMP280;47397;48.194;11.632;2022-10-16T01:57:14;96024.34;;;11.68
61595;BMP280;47397;48.194;11.632;2022-10-16T01:58:17;96024.22;;;11.72
61595;BMP280;47397;48.194;11.632;2022-10-16T01:59:20;96023.25;;;11.78
61595;BMP280;47397;48.194;11.632;2022-10-16T02:00:22;96026.50;;;11.83
61595;BMP280;47397;48.194;11.632;2022-10-16T02:01:26;96032.38;;;11.86
61595;BMP280;47397;48.194;11.632;2022-10-16T02:02:28;96020.41;;;11.88
61595;BMP280;47397;48.194;11.632;2022-10-16T02:03:31;96019.00;;;11.77
61595;BMP280;47397;48.194;11.632;2022-10-16T02:04:36;96021.41;;;11.83
61595;BMP280;47397;48.194;11.632;2022-10-16T02:05:41;96019.84;;;11.79
61595;BMP280;47397;48.194;11.632;2022-10-16T02:06:42;96013.53;;;11.59
61595;BMP280;47397;48.194;11.632;2022-10-16T02:07:43;96014.22;;;11.66
61595;BMP280;47397;48.194;11.632;2022-10-16T02:08:44;96018.19;;;11.76
61595;BMP280;47397;48.194;11.632;2022-10-16T02:09:44;96017.34;;;11.76
61595;BMP280;47397;48.194;11.632;2022-10-16T02:10:45;96010.84;;;11.66
61595;BMP280;47397;48.194;11.632;2022-10-16T02:11:45;96013.41;;;11.64
61595;BMP280;47397;48.194;11.632;2022-10-16T02:12:49;96012.41;;;11.70
61595;BMP280;47397;48.194;11.632;2022-10-16T02:13:55;96020.00;;;11.71
61595;BMP280;47397;48.194;11.632;2022-10-16T02:14:58;96020.72;;;11.78
61595;BMP280;47397;48.194;11.632;2022-10-16T02:15:59;96017.91;;;11.87
61595;BMP280;47397;48.194;11.632;2022-10-16T02:16:59;96017.13;;;11.85
61595;BMP280;47397;48.194;11.632;2022-10-16T02:18:00;96025.59;;;11.85
61595;BMP280;47397;48.194;11.632;2022-10-16T02:19:01;96021.19;;;11.92
61595;BMP280;47397;48.194;11.632;2022-10-16T02:20:03;96022.97;;;11.88
61595;BMP280;47397;48.194;11.632;2022-10-16T02:21:08;96017.88;;;11.88
61595;BMP280;47397;48.194;11.632;2022-10-16T02:22:17;96015.72;;;11.73
61595;BMP280;47397;48.194;11.632;2022-10-16T02:23:22;96020.97;;;11.67
61595;BMP280;47397;48.194;11.632;2022-10-16T02:24:31;96026.16;;;11.64
61595;BMP280;47397;48.194;11.632;2022-10-16T02:25:35;96026.78;;;11.72
61595;BMP280;47397;48.194;11.632;2022-10-16T02:26:42;96026.06;;;11.67
61595;BMP280;47397;48.194;11.632;2022-10-16T02:27:48;96033.63;;;11.70
61595;BMP280;47397;48.194;11.632;2022-10-16T02:28:54;96026.81;;;11.71
61595;BMP280;47397;48.194;11.632;2022-10-16T02:29:59;96025.19;;;11.68
61595;BMP280;47397;48.194;11.632;2022-10-16T02:31:03;96031.25;;;11.64
61595;BMP280;47397;48.194;11.632;2022-10-16T02:32:06;96034.56;;;11.66
61595;BMP280;47397;48.194;11.632;2022-10-16T02:33:10;96039.88;;;11.58
61595;BMP280;47397;48.194;11.632;2022-10-16T02:34:12;96033.41;;;11.79
61595;BMP280;47397;48.194;11.632;2022-10-16T02:35:15;96030.81;;;11.81
61595;BMP280;47397;48.194;11.632;2022-10-16T02:36:16;96027.56;;;11.74
61595;BMP280;47397;48.194;11.632;2022-10-16T02:37:17;96028.84;;;11.58
61595;BMP280;47397;48.194;11.632;2022-10-16T02:38:18;96037.88;;;11.70
61595;BMP280;47397;48.194;11.632;2022-10-16T02:39:21;96036.41;;;11.61
61595;BMP280;47397;48.194;11.632;2022-10-16T02:40:21;96039.16;;;11.52
61595;BMP280;47397;48.194;11.632;2022-10-16T02:41:23;96040.91;;;11.50
61595;BMP280;47397;48.194;11.632;2022-10-16T02:42:28;96038.66;;;11.39
61595;BMP280;47397;48.194;11.632;2022-10-16T02:43:29;96043.63;;;11.44
61595;BMP280;47397;48.194;11.632;2022-10-16T02:44:30;96042.75;;;11.45
61595;BMP280;47397;48.194;11.632;2022-10-16T02:45:31;96044.22;;;11.55
61595;BMP280;47397;48.194;11.632;2022-10-16T02:46:31;96043.56;;;11.45
61595;BMP280;47397;48.194;11.632;2022-10-16T02:47:32;96044.50;;;11.43
61595;BMP280;47397;48.194;11.632;2022-10-16T02:48:32;96043.56;;;11.45
61595;BMP280;47397;48.194;11.632;2022-10-16T02:49:33;96044.41;;;11.46
61595;BMP280;47397;48.194;11.632;2022-10-16T02:50:33;96043.28;;;11.57
61595;BMP280;47397;48.194;11.632;2022-10-16T02:51:34;96043.25;;;11.59
61595;BMP280;47397;48.194;11.632;2022-10-16T02:52:34;96049.13;;;11.61
61595;BMP280;47397;48.194;11.632;2022-10-16T02:53:35;96040.88;;;11.53
61595;BMP280;47397;48.194;11.632;2022-10-16T02:54:35;96042.75;;;11.45
61595;BMP280;47397;48.194;11.632;2022-10-16T02:55:35;96041.81;;;11.47
61595;BMP280;47397;48.194;11.632;2022-10-16T02:56:36;96048.75;;;11.42
61595;BMP280;47397;48.194;11.632;2022-10-16T02:57:36;96048.66;;;11.45
61595;BMP280;47397;48.194;11.632;2022-10-16T02:58:37;96051.09;;;11.50
61595;BMP280;47397;48.194;11.632;2022-10-16T02:59:38;96045.97;;;11.53
61595;BMP280;47397;48.194;11.632;2022-10-16T03:00:39;96055.59;;;11.40
61595;BMP280;47397;48.194;11.632;2022-10-16T03:01:39;96058.41;;;11.30
61595;BMP280;47397;48.194;11.632;2022-10-16T03:02:40;96059.75;;;11.43
61595;BMP280;47397;48.194;11.632;2022-10-16T03:03:40;96051.34;;;11.41
61595;BMP280;47397;48.194;11.632;2022-10-16T03:04:41;96047.88;;;11.43
61595;BMP280;47397;48.194;11.632;2022-10-16T03:05:43;96047.91;;;11.42
61595;BMP280;47397;48.194;11.632;2022-10-16T03:06:43;96049.44;;;11.49
61595;BMP280;47397;48.194;11.632;2022-10-16T03:07:43;96050.53;;;11.39
61595;BMP280;47397;48.194;11.632;2022-10-16T03:08:44;96048.09;;;11.34
61595;BMP280;47397;48.194;11.632;2022-10-16T03:09:44;96046.34;;;11.36
61595;BMP280;47397;48.194;11.632;2022-10-16T03:10:45;96042.97;;;11.36
61595;BMP280;47397;48.194;11.632;2022-10-16T03:11:45;96041.47;;;11.28
61595;BMP280;47397;48.194;11.632;2022-10-16T03:12:45;96039.72;;;11.31
61595;BMP280;47397;48.194;11.632;2022-10-16T03:13:46;96046.66;;;11.24
61595;BMP280;47397;48.194;11.632;2022-10-16T03:14:48;96035.53;;;11.28
61595;BMP280;47397;48.194;11.632;2022-10-16T03:15:48;96044.00;;;11.28
61595;BMP280;47397;48.194;11.632;2022-10-16T03:16:48;96039.00;;;11.25
61595;BMP280;47397;48.194;11.632;2022-10-16T03:17:49;96045.78;;;11.25
61595;BMP280;47397;48.194;11.632;2022-10-16T03:18:49;96039.63;;;11.34
61595;BMP280;47397;48.194;11.632;2022-10-16T03:19:50;96045.88;;;11.22
61595;BMP280;47397;48.194;11.632;2022-10-16T03:20:51;96034.63;;;11.31
61595;BMP280;47397;48.194;11.632;2022-10-16T03:21:51;96041.47;;;11.28
61595;BMP280;47397;48.194;11.632;2022-10-16T03:22:52;96032.84;;;11.34
61595;BMP280;47397;48.194;11.632;2022-10-16T03:23:52;96038.06;;;11.28
61595;BMP280;47397;48.194;11.632;2022-10-16T03:24:52;96044.81;;;11.31
61595;BMP280;47397;48.194;11.632;2022-10-16T03:25:53;96037.25;;;11.27
61595;BMP280;47397;48.194;11.632;2022-10-16T03:26:53;96038.94;;;11.27
61595;BMP280;47397;48.194;11.632;2022-10-16T03:27:54;96047.53;;;11.23
61595;BMP280;47397;48.194;11.632;2022-10-16T03:28:54;96048.53;;;11.17
61595;BMP280;47397;48.194;11.632;2022-10-16T03:29:56;96046.47;;;11.32
61595;BMP280;47397;48.194;11.632;2022-10-16T03:30:56;96046.34;;;11.36
61595;BMP280;47397;48.194;11.632;2022-10-16T03:31:56;96051.59;;;11.30
61595;BMP280;47397;48.194;11.632;2022-10-16T03:32:57;96054.75;;;11.40
61595;BMP280;47397;48.194;11.632;2022-10-16T03:33:57;96049.81;;;11.34
61595;BMP280;47397;48.194;11.632;2022-10-16T03:34:58;96048.06;;;11.36
61595;BMP280;47397;48.194;11.632;2022-10-16T03:35:58;96050.03;;;11.24
61595;BMP280;47397;48.194;11.632;2022-10-16T03:36:58;96051.88;;;11.19
61595;BMP280;47397;48.194;11.632;2022-10-16T03:37:59;96050.03;;;11.24
61595;BMP280;47397;48.194;11.632;2022-10-16T03:38:59;96039.66;;;11.32
61595;BMP280;47397;48.194;11.632;2022-10-16T03:40:00;96043.47;;;11.14
61595;BMP280;47397;48.194;11.632;2022-10-16T03:41:00;96045.16;;;11.17
61595;BMP280;47397;48.194;11.632;2022-10-16T03:42:01;96050.13;;;11.21
61595;BMP280;47397;48.194;11.632;2022-10-16T03:43:01;96046.75;;;11.21
61595;BMP280;47397;48.194;11.632;2022-10-16T03:44:01;96044.13;;;11.24
61595;BMP280;47397;48.194;11.632;2022-10-16T03:45:04;96044.66;;;11.37
61595;BMP280;47397;48.194;11.632;2022-10-16T03:46:05;96044.00;;;11.28
61595;BMP280;47397;48.194;11.632;2022-10-16T03:47:05;96053.31;;;11.30
61595;BMP280;47397;48.194;11.632;2022-10-16T03:48:05;96056.81;;;11.25
61595;BMP280;47397;48.194;11.632;2022-10-16T03:49:06;96060.16;;;11.27
61595;BMP280;47397;48.194;11.632;2022-10-16T03:50:08;96063.47;;;11.30
61595;BMP280;47397;48.194;11.632;2022-10-16T03:51:08;96063.22;;;11.40
61595;BMP280;47397;48.194;11.632;2022-10-16T03:52:09;96069.13;;;11.41
61595;BMP280;47397;48.194;11.632;2022-10-16T03:53:09;96064.78;;;11.46
61595;BMP280;47397;48.194;11.632;2022-10-16T03:54:10;96061.28;;;11.50
61595;BMP280;47397;48.194;11.632;2022-10-16T03:55:10;96061.28;;;11.50
61595;BMP280;47397;48.194;11.632;2022-10-16T03:56:11;96067.25;;;11.49
61595;BMP280;47397;48.194;11.632;2022-10-16T03:57:11;96067.34;;;11.44
61595;BMP280;47397;48.194;11.632;2022-10-16T03:58:12;96062.94;;;11.52
61595;BMP280;47397;48.194;11.632;2022-10-16T03:59:12;96066.25;;;11.56
61595;BMP280;47397;48.194;11.632;2022-10-16T04:00:14;96065.53;;;11.49
61595;BMP280;47397;48.194;11.632;2022-10-16T04:01:15;96064.66;;;11.50
61595;BMP280;47397;48.194;11.632;2022-10-16T04:02:15;96068.81;;;11.54
61595;BMP280;47397;48.194;11.632;2022-10-16T04:03:16;96066.31;;;11.51
61595;BMP280;47397;48.194;11.632;2022-10-16T04:04:16;96058.31;;;11.67
61595;BMP280;47397;48.194;11.632;2022-10-16T04:05:17;96055.00;;;11.65
61595;BMP280;47397;48.194;11.632;2022-10-16T04:06:17;96057.63;;;11.62
61595;BMP280;47397;48.194;11.632;2022-10-16T04:07:18;96058.59;;;11.56
61595;BMP280;47397;48.194;11.632;2022-10-16T04:08:18;96060.47;;;11.48
61595;BMP280;47397;48.194;11.632;2022-10-16T04:09:18;96058.59;;;11.56
61595;BMP280;47397;48.194;11.632;2022-10-16T04:10:19;96066.19;;;11.57
61595;BMP280;47397;48.194;11.632;2022-10-16T04:11:19;96066.13;;;11.61
61595;BMP280;47397;48.194;11.632;2022-10-16T04:12:20;96061.22;;;11.53
61595;BMP280;47397;48.194;11.632;2022-10-16T04:13:20;96062.06;;;11.53
61595;BMP280;47397;48.194;11.632;2022-10-16T04:14:20;96061.91;;;11.59
61595;BMP280;47397;48.194;11.632;2022-10-16T04:15:23;96057.56;;;11.63
61595;BMP280;47397;48.194;11.632;2022-10-16T04:16:23;96066.09;;;11.62
61595;BMP280;47397;48.194;11.632;2022-10-16T04:17:24;96060.16;;;11.62
61595;BMP280;47397;48.194;11.632;2022-10-16T04:18:24;96066.91;;;11.63
61595;BMP280;47397;48.194;11.632;2022-10-16T04:19:24;96061.88;;;11.61
61595;BMP280;47397;48.194;11.632;2022-10-16T04:20:25;96060.91;;;11.65
61595;BMP280;47397;48.194;11.632;2022-10-16T04:21:25;96054.16;;;11.64
61595;BMP280;47397;48.194;11.632;2022-10-16T04:22:26;96060.91;;;11.65
61595;BMP280;47397;48.194;11.632;2022-10-16T04:23:26;96065.00;;;11.71
61595;BMP280;47397;48.194;11.632;2022-10-16T04:24:26;96055.22;;;11.55
61595;BMP280;47397;48.194;11.632;2022-10-16T04:25:27;96056.84;;;11.58
61595;BMP280;47397;48.194;11.632;2022-10-16T04:26:27;96061.16;;;11.56
61595;BMP280;47397;48.194;11.632;2022-10-16T04:27:28;96058.44;;;11.62
61595;BMP280;47397;48.194;11.632;2022-10-16T04:28:28;96050.78;;;11.64
61595;BMP280;47397;48.194;11.632;2022-10-16T04:29:28;96054.06;;;11.67
61595;BMP280;47397;48.194;11.632;2022-10-16T04:30:30;96043.81;;;11.70
61595;BMP280;47397;48.194;11.632;2022-10-16T04:31:30;96055.78;;;11.67
61595;BMP280;47397;48.194;11.632;2022-10-16T04:32:31;96047.31;;;11.66
61595;BMP280;47397;48.194;11.632;2022-10-16T04:33:31;96047.22;;;11.69
61595;BMP280;47397;48.194;11.632;2022-10-16T04:34:32;96056.75;;;11.63
61595;BMP280;47397;48.194;11.632;2022-10-16T04:35:32;96060.78;;;11.70
61595;BMP280;47397;48.194;11.632;2022-10-16T04:36:33;96058.88;;;11.79
61595;BMP280;47397;48.194;11.632;2022-10-16T04:37:33;96060.47;;;11.83
61595;BMP280;47397;48.194;11.632;2022-10-16T04:38:33;96061.47;;;11.78
61595;BMP280;47397;48.194;11.632;2022-10-16T04:39:34;96066.59;;;11.75
61595;BMP280;47397;48.194;11.632;2022-10-16T04:40:34;96058.16;;;11.73
61595;BMP280;47397;48.194;11.632;2022-10-16T04:41:35;96058.19;;;11.71
61595;BMP280;47397;48.194;11.632;2022-10-16T04:42:35;96058.41;;;11.64
61595;BMP280;47397;48.194;11.632;2022-10-16T04:43:36;96064.09;;;11.73
61595;BMP280;47397;48.194;11.632;2022-10-16T04:44:36;96065.84;;;11.71
61595;BMP280;47397;48.194;11.632;2022-10-16T04:45:38;96071.56;;;11.81
61595;BMP280;47397;48.194;11.632;2022-10-16T04:46:38;96064.81;;;11.80
61595;BMP280;47397;48.194;11.632;2022-10-16T04:47:39;96063.09;;;11.80
61595;BMP280;47397;48.194;11.632;2022-10-16T04:48:39;96069.94;;;11.77
61595;BMP280;47397;48.194;11.632;2022-10-16T04:49:39;96073.41;;;11.74
61595;BMP280;47397;48.194;11.632;2022-10-16T04:50:41;96063.88;;;11.82
61595;BMP280;47397;48.194;11.632;2022-10-16T04:51:41;96065.56;;;11.83
61595;BMP280;47397;48.194;11.632;2022-10-16T04:52:41;96066.31;;;11.87
61595;BMP280;47397;48.194;11.632;2022-10-16T04:53:42;96070.53;;;11.88
61595;BMP280;47397;48.194;11.632;2022-10-16T04:54:42;96068.97;;;11.82
61595;BMP280;47397;48.194;11.632;2022-10-16T04:55:43;96068.81;;;11.88
61595;BMP280;47397;48.194;11.632;2022-10-16T04:56:46;96067.19;;;11.86
61595;BMP280;47397;48.194;11.632;2022-10-16T04:57:47;96074.16;;;11.79
61595;BMP280;47397;48.194;11.632;2022-10-16T04:58:47;96072.31;;;11.84
61595;BMP280;47397;48.194;11.632;2022-10-16T04:59:48;96071.31;;;11.92
61595;BMP280;47397;48.194;11.632;2022-10-16T05:00:50;96068.81;;;11.88
61595;BMP280;47397;48.194;11.632;2022-10-16T05:01:50;96058.50;;;11.95
61595;BMP280;47397;48.194;11.632;2022-10-16T05:02:51;96053.34;;;11.96
61595;BMP280;47397;48.194;11.632;2022-10-16T05:03:51;96051.81;;;11.91
61595;BMP280;47397;48.194;11.632;2022-10-16T05:04:51;96049.34;;;11.86
61595;BMP280;47397;48.194;11.632;2022-10-16T05:05:52;96055.28;;;11.86
61595;BMP280;47397;48.194;11.632;2022-10-16T05:06:52;96054.41;;;11.87
61595;BMP280;47397;48.194;11.632;2022-10-16T05:07:53;96049.22;;;11.92
61595;BMP280;47397;48.194;11.632;2022-10-16T05:08:53;96048.19;;;11.99
61595;BMP280;47397;48.194;11.632;2022-10-16T05:09:54;96054.28;;;11.94
61595;BMP280;47397;48.194;11.632;2022-10-16T05:10:54;96052.63;;;11.91
61595;BMP280;47397;48.194;11.632;2022-10-16T05:11:54;96050.97;;;11.90
61595;BMP280;47397;48.194;11.632;2022-10-16T05:12:55;96053.53;;;11.88
61595;BMP280;47397;48.194;11.632;2022-10-16T05:13:55;96056.81;;;11.94
61595;BMP280;47397;48.194;11.632;2022-10-16T05:14:56;96061.00;;;11.96
61595;BMP280;47397;48.194;11.632;2022-10-16T05:15:58;96063.41;;;12.01
61595;BMP280;47397;48.194;11.632;2022-10-16T05:16:59;96065.88;;;12.04
61595;BMP280;47397;48.194;11.632;2022-10-16T05:17:59;96073.53;;;12.04
61595;BMP280;47397;48.194;11.632;2022-10-16T05:19:00;96067.63;;;12.02
61595;BMP280;47397;48.194;11.632;2022-10-16T05:20:00;96062.56;;;12.00
61595;BMP280;47397;48.194;11.632;2022-10-16T05:21:00;96066.81;;;12.01
61595;BMP280;47397;48.194;11.632;2022-10-16T05:22:01;96062.56;;;12.00
61595;BMP280;47397;48.194;11.632;2022-10-16T05:23:02;96056.56;;;12.03
61595;BMP280;47397;48.194;11.632;2022-10-16T05:24:02;96057.50;;;12.00
61595;BMP280;47397;48.194;11.632;2022-10-16T05:25:03;96053.97;;;12.04
61595;BMP280;47397;48.194;11.632;2022-10-16T05:26:04;96054.94;;;12.00
61595;BMP280;47397;48.194;11.632;2022-10-16T05:27:04;96054.09;;;12.00
61595;BMP280;47397;48.194;11.632;2022-10-16T05:28:05;96050.63;;;12.02
61595;BMP280;47397;48.194;11.632;2022-10-16T05:29:05;96055.78;;;12.01
61595;BMP280;47397;48.194;11.632;2022-10-16T05:30:07;96054.97;;;11.99
61595;BMP280;47397;48.194;11.632;2022-10-16T05:31:09;96054.06;;;12.01
61595;BMP280;47397;48.194;11.632;2022-10-16T05:32:09;96053.88;;;12.07
61595;BMP280;47397;48.194;11.632;2022-10-16T05:33:10;96058.31;;;12.01
61595;BMP280;47397;48.194;11.632;2022-10-16T05:34:10;96062.44;;;12.05
61595;BMP280;47397;48.194;11.632;2022-10-16T05:35:11;96067.69;;;12.00
61595;BMP280;47397;48.194;11.632;2022-10-16T05:36:11;96077.81;;;12.02
61595;BMP280;47397;48.194;11.632;2022-10-16T05:37:12;96076.13;;;12.02
61595;BMP280;47397;48.194;11.632;2022-10-16T05:38:13;96080.94;;;12.11
61595;BMP280;47397;48.194;11.632;2022-10-16T05:39:14;96083.47;;;12.13
61595;BMP280;47397;48.194;11.632;2022-10-16T05:40:14;96079.06;;;12.18
61595;BMP280;47397;48.194;11.632;2022-10-16T05:41:15;96071.50;;;12.15
61595;BMP280;47397;48.194;11.632;2022-10-16T05:42:15;96074.16;;;12.12
61595;BMP280;47397;48.194;11.632;2022-10-16T05:43:16;96076.66;;;12.13
61595;BMP280;47397;48.194;11.632;2022-10-16T05:44:16;96077.41;;;12.17
61595;BMP280;47397;48.194;11.632;2022-10-16T05:45:17;96079.19;;;12.13
61595;BMP280;47397;48.194;11.632;2022-10-16T05:46:18;96078.31;;;12.14
61595;BMP280;47397;48.194;11.632;2022-10-16T05:47:19;96083.28;;;12.19
61595;BMP280;47397;48.194;11.632;2022-10-16T05:48:20;96080.78;;;12.17
61595;BMP280;47397;48.194;11.632;2022-10-16T05:49:20;96084.16;;;12.18
61595;BMP280;47397;48.194;11.632;2022-10-16T05:50:21;96086.66;;;12.19
61595;BMP280;47397;48.194;11.632;2022-10-16T05:51:21;96084.09;;;12.21